This is the latest recevied weather packets stored in our database for station/object W4MLN-3. If no packets are shown the sender has not sent any weather packets the latest 10 day(s).
| Time | Temp. | Humidity | Pressure | Rain* | Wind** | Luminosity | Snow |
|---|---|---|---|---|---|---|---|
| 1788206124 | 31.11° C | 50% | 1023.6 hPa | 0 mm | - | - | - |
| 1788205824 | 31.11° C | 48% | 1023.7 hPa | 0 mm | - | - | - |
| 1788205504 | 31.11° C | 48% | 1023.7 hPa | 0 mm | - | - | - |
| 1788205203 | 31.11° C | 50% | 1023.7 hPa | 0 mm | - | - | - |
| 1788204903 | 31.11° C | 49% | 1023.7 hPa | 0 mm | - | - | - |
| 1788204603 | 31.11° C | 49% | 1023.8 hPa | 0 mm | - | - | - |
| 1788204303 | 31.67° C | 48% | 1023.9 hPa | 0 mm | - | - | - |
| 1788204003 | 31.67° C | 46% | 1023.9 hPa | 0 mm | - | - | - |
| 1788203703 | 31.11° C | 49% | 1024 hPa | 0 mm | - | - | - |
| 1788203403 | 31.11° C | 49% | 1024 hPa | 0 mm | - | - | - |
| 1788203124 | 31.11° C | 48% | 1024.1 hPa | 0 mm | - | - | - |
| 1788202803 | 30.56° C | 52% | 1024.1 hPa | 0 mm | - | - | - |
| 1788202503 | 30° C | 54% | 1024.1 hPa | 0 mm | - | - | - |
| 1788202224 | 30° C | 56% | 1024.1 hPa | 0 mm | - | - | - |
| 1788201903 | 29.44° C | 55% | 1024 hPa | 0 mm | - | - | - |
| 1788201603 | 29.44° C | 55% | 1024.1 hPa | 0 mm | - | - | - |
| 1788201311 | 29.44° C | 53% | 1024.1 hPa | 0 mm | - | - | - |
| 1788201003 | 30° C | 53% | 1024 hPa | 0 mm | - | - | - |
| 1788200703 | 30.56° C | 52% | 1024.1 hPa | 0 mm | - | - | - |
| 1788200427 | 30.56° C | 51% | 1024 hPa | 0 mm | - | - | - |
| 1788200103 | 30.56° C | 52% | 1024 hPa | 0 mm | - | - | - |
| 1788199803 | 30.56° C | 52% | 1024.1 hPa | 0 mm | - | - | - |
| 1788199503 | 30.56° C | 50% | 1024.3 hPa | 0 mm | - | - | - |
| 1788199203 | 30.56° C | 51% | 1024.3 hPa | 0 mm | - | - | - |
| 1788198903 | 30° C | 53% | 1024.4 hPa | 0 mm | - | - | - |
* Rain latest hour (hover to see other rain measurements)
** Current wind speed in m/s (hover to see current wind gust speed)